Time;durP1;ratioP1;P1;durP2;ratioP2;P2;SDS_P1;SDS_P2;PMS_P1;PMS_P2;Temp;Humidity;BMP_temperature;BMP_pressure;BME280_temperature;BME280_humidity;BME280_pressure;Samples;Min_cycle;Max_cycle;Signal;HPM_P1;HPM_P2
2023/03/19 00:01:20;;;;;;;133.35;9.93;;;;;;;;;;4937900;28;20101;-57
2023/03/19 00:03:46;;;;;;;116.55;9.45;;;;;;;;;;4948908;28;20027;-58
2023/03/19 00:06:11;;;;;;;127.68;9.35;;;;;;;;;;4946926;28;20039;-58
2023/03/19 00:08:36;;;;;;;111.43;8.75;;;;;;;;;;4950054;28;20073;-57
2023/03/19 00:11:05;;;;;;;108.70;8.90;;;;;;;;;;4948120;28;20453;-59
2023/03/19 00:13:31;;;;;;;136.70;10.00;;;;;;;;;;4946974;28;20059;-58
2023/03/19 00:15:56;;;;;;;121.20;9.60;;;;;;;;;;4948063;28;20504;-57
2023/03/19 00:18:21;;;;;;;133.20;9.77;;;;;;;;;;4949086;28;20332;-56
2023/03/19 00:20:46;;;;;;;102.88;9.07;;;;;;;;;;4950421;28;20348;-55
2023/03/19 00:23:12;;;;;;;122.40;9.35;;;;;;;;;;4957922;28;20118;-57
2023/03/19 00:25:37;;;;;;;118.72;9.15;;;;;;;;;;4951401;28;20158;-56
2023/03/19 00:28:02;;;;;;;103.07;8.70;;;;;;;;;;4951053;28;20035;-57
2023/03/19 00:30:28;;;;;;;120.95;8.85;;;;;;;;;;4951856;28;20089;-55
2023/03/19 00:32:53;;;;;;;135.50;8.98;;;;;;;;;;4952055;28;20477;-56
2023/03/19 00:35:18;;;;;;;137.33;8.57;;;;;;;;;;4954100;28;20027;-56
2023/03/19 00:37:43;;;;;;;118.37;8.43;;;;;;;;;;4954296;28;20329;-57
2023/03/19 00:40:09;;;;;;;133.15;9.02;;;;;;;;;;4949452;28;20262;-58
2023/03/19 00:42:34;;;;;;;103.90;7.85;;;;;;;;;;4952039;28;20078;-57
2023/03/19 00:44:59;;;;;;;111.05;8.18;;;;;;;;;;4951766;28;20034;-57
2023/03/19 00:47:25;;;;;;;122.68;8.73;;;;;;;;;;4949957;28;20045;-58
2023/03/19 00:49:51;;;;;;;129.52;8.52;;;;;;;;;;4952676;28;20033;-56
2023/03/19 00:52:16;;;;;;;171.40;10.07;;;;;;;;;;4951198;28;20031;-57
2023/03/19 00:54:41;;;;;;;112.30;8.00;;;;;;;;;;4951329;28;20472;-56
2023/03/19 00:57:07;;;;;;;130.18;8.80;;;;;;;;;;4951367;28;20395;-57
2023/03/19 00:59:32;;;;;;;140.80;8.75;;;;;;;;;;4951138;28;20137;-57
2023/03/19 01:01:57;;;;;;;112.97;8.47;;;;;;;;;;4949932;28;20413;-57
2023/03/19 01:04:23;;;;;;;123.47;8.40;;;;;;;;;;4951068;28;20612;-57
2023/03/19 01:06:48;;;;;;;110.50;8.10;;;;;;;;;;4950882;28;20043;-57
2023/03/19 01:09:14;;;;;;;121.90;8.37;;;;;;;;;;4952366;28;20401;-57
2023/03/19 01:11:39;;;;;;;130.35;8.98;;;;;;;;;;4950127;28;20663;-57
2023/03/19 01:14:05;;;;;;;125.78;7.70;;;;;;;;;;4950136;28;20030;-57
2023/03/19 01:16:30;;;;;;;105.80;7.75;;;;;;;;;;4952003;28;20473;-56
2023/03/19 01:18:56;;;;;;;139.63;8.50;;;;;;;;;;4949382;28;20027;-55
2023/03/19 01:21:21;;;;;;;121.93;8.05;;;;;;;;;;4950613;28;20417;-57
2023/03/19 01:23:46;;;;;;;120.75;7.55;;;;;;;;;;4950686;28;20023;-55
2023/03/19 01:26:12;;;;;;;122.78;7.53;;;;;;;;;;4949881;28;20432;-55
2023/03/19 01:28:37;;;;;;;96.53;7.10;;;;;;;;;;4950684;28;20016;-55
2023/03/19 01:31:06;;;;;;;119.93;8.13;;;;;;;;;;4950145;28;20472;-57
2023/03/19 01:33:32;;;;;;;114.28;7.65;;;;;;;;;;4951526;28;20630;-56
2023/03/19 01:36:01;;;;;;;104.45;7.57;;;;;;;;;;4949333;28;20031;-58
2023/03/19 01:38:26;;;;;;;111.03;7.53;;;;;;;;;;4950751;28;20035;-55
2023/03/19 01:40:52;;;;;;;119.73;7.90;;;;;;;;;;4950933;28;20411;-56
2023/03/19 01:43:24;;;;;;;114.82;7.80;;;;;;;;;;4949643;28;20632;-56
2023/03/19 01:45:49;;;;;;;;;;;;;;;;;;4950681;28;20110;-58
2023/03/19 01:48:34;;;;;;;104.67;7.27;;;;;;;;;;4950278;28;20059;-56
2023/03/19 01:51:00;;;;;;;98.47;6.90;;;;;;;;;;4947971;28;20064;-56
2023/03/19 01:53:28;;;;;;;110.38;7.93;;;;;;;;;;4949309;28;20410;-58
2023/03/19 01:55:56;;;;;;;136.27;8.60;;;;;;;;;;4950502;28;20062;-57
2023/03/19 01:58:21;;;;;;;121.03;8.45;;;;;;;;;;4950410;28;20082;-57
2023/03/19 02:00:46;;;;;;;134.50;8.50;;;;;;;;;;4948597;28;20114;-54
2023/03/19 02:03:12;;;;;;;116.00;7.60;;;;;;;;;;4949754;28;20015;-57
2023/03/19 02:05:38;;;;;;;89.25;7.15;;;;;;;;;;4950467;28;20046;-57
2023/03/19 02:08:05;;;;;;;128.80;8.68;;;;;;;;;;4949862;28;20039;-57
2023/03/19 02:10:30;;;;;;;107.40;8.23;;;;;;;;;;4947904;28;20039;-55
2023/03/19 02:12:55;;;;;;;138.65;9.32;;;;;;;;;;4950514;28;20078;-57
2023/03/19 02:15:21;;;;;;;123.10;9.07;;;;;;;;;;4949042;28;20046;-56
2023/03/19 02:17:46;;;;;;;113.45;8.48;;;;;;;;;;4949696;28;20350;-56
2023/03/19 02:20:11;;;;;;;134.02;9.52;;;;;;;;;;4948424;28;20026;-57
2023/03/19 02:22:40;;;;;;;117.73;9.20;;;;;;;;;;4948746;28;20023;-57
2023/03/19 02:25:08;;;;;;;95.97;8.77;;;;;;;;;;4948324;28;20558;-57
2023/03/19 02:27:33;;;;;;;135.13;10.38;;;;;;;;;;4949417;28;20069;-56
2023/03/19 02:29:59;;;;;;;119.20;9.02;;;;;;;;;;4951326;28;20141;-57
2023/03/19 02:32:25;;;;;;;171.57;10.73;;;;;;;;;;4947852;28;20181;-56
2023/03/19 02:34:50;;;;;;;155.32;10.10;;;;;;;;;;4949166;28;20531;-56
2023/03/19 02:37:25;;;;;;;121.47;8.93;;;;;;;;;;4951741;28;20126;-57
2023/03/19 02:39:54;;;;;;;147.65;9.77;;;;;;;;;;4950779;28;20031;-56
2023/03/19 02:42:21;;;;;;;152.98;10.05;;;;;;;;;;4949038;28;20045;-55
2023/03/19 02:44:46;;;;;;;122.53;8.98;;;;;;;;;;4948592;28;20030;-56
2023/03/19 02:47:12;;;;;;;110.95;8.95;;;;;;;;;;4949173;28;20168;-58
2023/03/19 02:49:37;;;;;;;103.07;8.25;;;;;;;;;;4949455;28;20027;-57
2023/03/19 02:52:02;;;;;;;127.53;8.73;;;;;;;;;;4948015;28;20328;-57
2023/03/19 02:54:27;;;;;;;86.60;7.88;;;;;;;;;;4948388;28;20255;-57
2023/03/19 02:56:53;;;;;;;142.95;9.25;;;;;;;;;;4947702;28;20065;-56
2023/03/19 02:59:18;;;;;;;156.85;9.90;;;;;;;;;;4947941;28;20105;-57
2023/03/19 03:01:44;;;;;;;112.07;8.80;;;;;;;;;;4947623;28;20122;-58
2023/03/19 03:04:09;;;;;;;124.72;8.85;;;;;;;;;;4949401;28;20393;-57
2023/03/19 03:06:35;;;;;;;117.72;9.20;;;;;;;;;;4950284;28;20194;-56
2023/03/19 03:09:00;;;;;;;102.07;8.80;;;;;;;;;;4949198;28;20326;-55
2023/03/19 03:11:25;;;;;;;122.07;9.73;;;;;;;;;;4948076;28;20776;-55
2023/03/19 03:13:51;;;;;;;123.10;9.18;;;;;;;;;;4948777;28;20015;-55
2023/03/19 03:16:16;;;;;;;107.75;8.85;;;;;;;;;;4947336;28;20035;-56
2023/03/19 03:18:41;;;;;;;127.27;9.67;;;;;;;;;;4949722;28;20037;-56
2023/03/19 03:21:07;;;;;;;100.65;9.82;;;;;;;;;;4948046;28;20585;-56
2023/03/19 03:23:32;;;;;;;131.52;9.80;;;;;;;;;;4947109;28;20544;-57
2023/03/19 03:25:57;;;;;;;149.10;9.82;;;;;;;;;;4949429;28;20054;-56
2023/03/19 03:28:23;;;;;;;111.95;6.82;;;;;;;;;;4948669;28;20137;-57
2023/03/19 03:30:48;;;;;;;118.43;9.40;;;;;;;;;;4949510;28;20499;-56
2023/03/19 03:33:14;;;;;;;99.43;8.60;;;;;;;;;;4949044;28;20070;-57
2023/03/19 03:35:39;;;;;;;126.47;9.43;;;;;;;;;;4948360;28;20107;-57
2023/03/19 03:38:05;;;;;;;98.85;8.90;;;;;;;;;;4947612;28;20426;-58
2023/03/19 03:40:32;;;;;;;126.43;9.32;;;;;;;;;;4948383;28;20038;-55
2023/03/19 03:42:57;;;;;;;118.68;9.63;;;;;;;;;;4948481;28;20023;-57
2023/03/19 03:45:22;;;;;;;139.17;10.90;;;;;;;;;;4945967;28;20035;-56
2023/03/19 03:47:48;;;;;;;112.45;8.93;;;;;;;;;;4947199;28;20279;-56
2023/03/19 03:50:13;;;;;;;103.85;8.65;;;;;;;;;;4947980;28;20030;-55
2023/03/19 03:52:39;;;;;;;125.32;9.77;;;;;;;;;;4947871;28;20103;-56
2023/03/19 03:55:05;;;;;;;106.82;9.18;;;;;;;;;;4947920;28;20035;-56
2023/03/19 03:57:30;;;;;;;109.60;8.98;;;;;;;;;;4948744;28;20011;-57
2023/03/19 03:59:55;;;;;;;92.77;8.60;;;;;;;;;;4947419;28;20389;-55
2023/03/19 04:02:21;;;;;;;178.97;11.83;;;;;;;;;;4946169;28;20271;-58
2023/03/19 04:04:46;;;;;;;104.45;9.25;;;;;;;;;;4948006;28;20259;-55
2023/03/19 04:07:11;;;;;;;118.38;9.90;;;;;;;;;;4947879;28;20035;-56
2023/03/19 04:09:37;;;;;;;91.10;8.57;;;;;;;;;;4948127;28;20055;-57
2023/03/19 04:12:02;;;;;;;169.07;11.13;;;;;;;;;;4947489;28;20547;-56
2023/03/19 04:14:27;;;;;;;150.05;10.60;;;;;;;;;;4947910;28;20023;-57
2023/03/19 04:16:53;;;;;;;127.83;9.53;;;;;;;;;;4946926;28;20341;-58
2023/03/19 04:19:19;;;;;;;113.10;9.43;;;;;;;;;;4947284;28;20325;-55
2023/03/19 04:21:44;;;;;;;132.00;10.05;;;;;;;;;;4948212;28;20067;-57
2023/03/19 04:24:10;;;;;;;136.13;9.73;;;;;;;;;;4947692;28;20106;-56
2023/03/19 04:26:36;;;;;;;141.25;9.95;;;;;;;;;;4945493;28;21106;-56
2023/03/19 04:29:02;;;;;;;121.22;8.40;;;;;;;;;;4949869;28;20058;-56
2023/03/19 04:31:27;;;;;;;142.85;9.73;;;;;;;;;;4946269;28;20118;-57
2023/03/19 04:33:52;;;;;;;140.68;10.40;;;;;;;;;;4949892;28;20142;-56
2023/03/19 04:36:17;;;;;;;123.90;8.38;;;;;;;;;;4946315;28;20039;-55
2023/03/19 04:38:43;;;;;;;107.57;8.75;;;;;;;;;;4947163;28;20085;-55
2023/03/19 04:41:08;;;;;;;128.18;9.13;;;;;;;;;;4949362;28;20093;-55
2023/03/19 04:43:33;;;;;;;110.00;8.25;;;;;;;;;;4948545;28;20386;-56
2023/03/19 04:45:59;;;;;;;125.38;9.35;;;;;;;;;;4946959;28;20444;-58
2023/03/19 04:48:25;;;;;;;108.15;9.25;;;;;;;;;;4948367;28;20313;-56
2023/03/19 04:50:52;;;;;;;142.60;10.48;;;;;;;;;;4947178;28;20031;-56
2023/03/19 04:53:19;;;;;;;126.88;9.82;;;;;;;;;;4948969;28;20019;-56
2023/03/19 04:55:44;;;;;;;103.88;9.07;;;;;;;;;;4946317;28;20062;-57
2023/03/19 04:58:10;;;;;;;105.47;9.23;;;;;;;;;;4947875;28;20266;-56
2023/03/19 05:00:35;;;;;;;106.03;9.77;;;;;;;;;;4946415;28;20031;-57
2023/03/19 05:03:00;;;;;;;126.65;9.73;;;;;;;;;;4946448;28;20031;-56
2023/03/19 05:05:26;;;;;;;130.13;10.23;;;;;;;;;;4946336;28;20035;-55
2023/03/19 05:07:51;;;;;;;96.60;8.88;;;;;;;;;;4947879;28;20286;-55
2023/03/19 05:10:16;;;;;;;153.13;10.77;;;;;;;;;;4950100;28;20019;-56
2023/03/19 05:12:41;;;;;;;126.95;9.88;;;;;;;;;;4951250;28;20246;-56
2023/03/19 05:15:07;;;;;;;137.07;10.27;;;;;;;;;;4950348;28;20098;-56
2023/03/19 05:17:32;;;;;;;109.93;10.13;;;;;;;;;;4951337;28;20273;-56
2023/03/19 05:19:57;;;;;;;148.63;10.93;;;;;;;;;;4949019;28;20050;-55
2023/03/19 05:22:23;;;;;;;108.78;9.48;;;;;;;;;;4949712;28;20094;-56
2023/03/19 05:24:48;;;;;;;144.63;13.20;;;;;;;;;;4950914;28;20098;-55
2023/03/19 05:27:14;;;;;;;104.97;9.70;;;;;;;;;;4950423;28;20070;-55
2023/03/19 05:29:39;;;;;;;118.15;10.02;;;;;;;;;;4951000;28;20016;-57
2023/03/19 05:32:05;;;;;;;132.60;9.52;;;;;;;;;;4949956;28;20065;-55
2023/03/19 05:34:31;;;;;;;105.28;9.05;;;;;;;;;;4950574;28;20027;-57
2023/03/19 05:36:57;;;;;;;134.32;10.32;;;;;;;;;;4950261;28;20039;-55
2023/03/19 05:39:22;;;;;;;116.70;9.63;;;;;;;;;;4952086;28;20444;-56
2023/03/19 05:41:47;;;;;;;108.10;9.45;;;;;;;;;;4950768;28;20492;-55
2023/03/19 05:44:13;;;;;;;136.05;10.23;;;;;;;;;;4951368;28;20023;-57
2023/03/19 05:46:38;;;;;;;104.22;8.93;;;;;;;;;;4949234;28;20035;-57
2023/03/19 05:49:03;;;;;;;128.23;10.07;;;;;;;;;;4951555;28;20077;-57
2023/03/19 05:51:29;;;;;;;141.68;14.07;;;;;;;;;;4951039;28;20255;-55
2023/03/19 05:53:54;;;;;;;100.60;9.63;;;;;;;;;;4952352;28;20442;-56
2023/03/19 05:56:20;;;;;;;142.45;10.65;;;;;;;;;;4951466;28;20039;-54
2023/03/19 05:58:45;;;;;;;117.05;9.05;;;;;;;;;;4949690;28;20405;-56
2023/03/19 06:01:11;;;;;;;122.53;9.98;;;;;;;;;;4950685;28;20044;-56
2023/03/19 06:03:36;;;;;;;150.05;10.25;;;;;;;;;;4950011;28;20135;-57
2023/03/19 06:06:01;;;;;;;117.43;9.67;;;;;;;;;;4948743;28;20039;-56
2023/03/19 06:08:26;;;;;;;74.83;7.60;;;;;;;;;;4950702;28;20274;-57
2023/03/19 06:10:52;;;;;;;145.10;10.43;;;;;;;;;;4949052;28;20298;-56
2023/03/19 06:13:17;;;;;;;126.53;10.02;;;;;;;;;;4949329;28;20023;-56
2023/03/19 06:15:42;;;;;;;119.43;9.65;;;;;;;;;;4951605;28;20090;-58
2023/03/19 06:18:08;;;;;;;112.07;8.53;;;;;;;;;;4949068;28;20258;-55
2023/03/19 06:20:33;;;;;;;109.70;8.93;;;;;;;;;;4948880;28;20839;-55
2023/03/19 06:22:58;;;;;;;141.20;10.63;;;;;;;;;;4949007;28;20397;-55
2023/03/19 06:25:23;;;;;;;108.85;10.30;;;;;;;;;;4949393;28;20043;-57
2023/03/19 06:27:49;;;;;;;106.90;10.10;;;;;;;;;;4950160;28;20480;-56
2023/03/19 06:30:14;;;;;;;150.07;11.23;;;;;;;;;;4948880;28;20023;-57
2023/03/19 06:32:39;;;;;;;105.13;10.32;;;;;;;;;;4950354;28;20276;-54
2023/03/19 06:35:05;;;;;;;116.53;10.23;;;;;;;;;;4947667;28;20045;-56
2023/03/19 06:37:31;;;;;;;136.30;10.23;;;;;;;;;;4950365;28;20348;-56
2023/03/19 06:39:56;;;;;;;105.47;9.57;;;;;;;;;;4950007;28;20026;-55
2023/03/19 06:42:22;;;;;;;150.00;11.50;;;;;;;;;;4947800;28;20034;-57
2023/03/19 06:44:47;;;;;;;111.47;7.60;;;;;;;;;;4949869;28;20134;-56
2023/03/19 06:47:13;;;;;;;118.40;9.77;;;;;;;;;;4947748;28;20045;-57
2023/03/19 06:49:38;;;;;;;146.65;10.85;;;;;;;;;;4948292;28;20444;-55
2023/03/19 06:52:04;;;;;;;104.63;9.50;;;;;;;;;;4950657;28;20086;-56
2023/03/19 06:54:29;;;;;;;99.20;9.40;;;;;;;;;;4950266;28;20019;-57
2023/03/19 06:56:54;;;;;;;132.60;10.55;;;;;;;;;;4950063;28;20277;-55
2023/03/19 06:59:20;;;;;;;95.05;9.50;;;;;;;;;;4948713;28;20030;-57
2023/03/19 07:01:45;;;;;;;125.65;10.23;;;;;;;;;;4947682;28;20046;-58
2023/03/19 07:04:11;;;;;;;119.07;10.75;;;;;;;;;;4949862;28;20106;-57
2023/03/19 07:06:36;;;;;;;100.85;9.45;;;;;;;;;;4950401;28;20068;-56
2023/03/19 07:09:02;;;;;;;140.93;10.82;;;;;;;;;;4950740;28;20026;-57
2023/03/19 07:11:27;;;;;;;91.03;8.57;;;;;;;;;;4949511;28;20041;-55
2023/03/19 07:13:52;;;;;;;108.18;9.35;;;;;;;;;;4950097;28;20039;-56
2023/03/19 07:16:17;;;;;;;143.52;10.90;;;;;;;;;;4948922;28;20047;-56
2023/03/19 07:18:43;;;;;;;98.80;9.33;;;;;;;;;;4950244;28;20238;-55
2023/03/19 07:21:08;;;;;;;126.37;9.77;;;;;;;;;;4948845;28;20267;-56
2023/03/19 07:23:33;;;;;;;131.17;11.07;;;;;;;;;;4945760;28;20422;-56
2023/03/19 07:25:58;;;;;;;117.68;10.18;;;;;;;;;;4948420;28;20369;-55
2023/03/19 07:28:24;;;;;;;113.35;10.20;;;;;;;;;;4948822;28;20134;-55
2023/03/19 07:30:52;;;;;;;106.97;10.10;;;;;;;;;;4947653;28;20524;-55
2023/03/19 07:33:17;;;;;;;103.38;9.52;;;;;;;;;;4948563;28;20470;-54
2023/03/19 07:35:43;;;;;;;155.70;11.68;;;;;;;;;;4949023;28;20031;-57
2023/03/19 07:38:08;;;;;;;87.13;8.65;;;;;;;;;;4947471;28;20039;-56
2023/03/19 07:40:33;;;;;;;112.03;10.07;;;;;;;;;;4947453;28;20042;-55
2023/03/19 07:42:58;;;;;;;106.60;10.03;;;;;;;;;;4948440;28;20221;-56
2023/03/19 07:45:24;;;;;;;101.17;10.13;;;;;;;;;;4948408;28;20255;-56
2023/03/19 07:47:50;;;;;;;131.93;11.38;;;;;;;;;;4947192;28;20380;-55
2023/03/19 07:50:15;;;;;;;111.72;10.77;;;;;;;;;;4947810;28;20638;-55
2023/03/19 07:52:41;;;;;;;115.65;10.68;;;;;;;;;;4947823;28;20602;-57
2023/03/19 07:55:06;;;;;;;131.15;10.70;;;;;;;;;;4946813;28;20091;-55
2023/03/19 07:57:31;;;;;;;115.53;9.75;;;;;;;;;;4950759;28;20471;-57
2023/03/19 07:59:57;;;;;;;108.30;9.70;;;;;;;;;;4948972;28;20061;-56
2023/03/19 08:02:22;;;;;;;164.88;12.43;;;;;;;;;;4944768;28;20035;-56
2023/03/19 08:04:47;;;;;;;85.63;9.63;;;;;;;;;;4948576;28;20043;-57
2023/03/19 08:07:13;;;;;;;103.30;9.77;;;;;;;;;;4947275;28;20069;-56
2023/03/19 08:09:38;;;;;;;105.15;10.82;;;;;;;;;;4949151;28;20277;-56
2023/03/19 08:12:05;;;;;;;84.70;10.38;;;;;;;;;;4949649;28;20036;-57
2023/03/19 08:14:30;;;;;;;132.60;11.98;;;;;;;;;;4949643;28;20400;-58
2023/03/19 08:16:56;;;;;;;91.60;10.07;;;;;;;;;;4949306;28;20482;-55
2023/03/19 08:19:21;;;;;;;101.17;10.40;;;;;;;;;;4951159;28;20027;-55
2023/03/19 08:21:47;;;;;;;126.63;11.20;;;;;;;;;;4949876;28;20293;-57
2023/03/19 08:24:12;;;;;;;99.57;11.20;;;;;;;;;;4951760;28;20033;-57
2023/03/19 08:26:37;;;;;;;90.55;10.73;;;;;;;;;;4950094;28;20087;-56
2023/03/19 08:29:03;;;;;;;100.67;11.93;;;;;;;;;;4950812;28;20033;-57
2023/03/19 08:31:29;;;;;;;85.32;11.82;;;;;;;;;;4949770;28;20319;-56
2023/03/19 08:33:54;;;;;;;118.13;11.80;;;;;;;;;;4950983;28;20564;-58
2023/03/19 08:36:20;;;;;;;95.15;9.52;;;;;;;;;;4949144;28;20036;-56
2023/03/19 08:38:45;;;;;;;101.50;9.77;;;;;;;;;;4949523;28;20110;-57
2023/03/19 08:41:11;;;;;;;115.00;10.82;;;;;;;;;;4951508;28;20401;-56
2023/03/19 08:43:36;;;;;;;101.00;10.10;;;;;;;;;;4953637;28;20023;-56
2023/03/19 08:46:02;;;;;;;98.40;9.93;;;;;;;;;;4956486;28;20786;-56
2023/03/19 08:48:29;;;;;;;100.60;9.73;;;;;;;;;;4954602;28;20122;-57
2023/03/19 08:50:55;;;;;;;98.90;9.98;;;;;;;;;;4955367;28;20031;-56
2023/03/19 08:53:21;;;;;;;113.45;10.27;;;;;;;;;;4953475;28;20031;-56
2023/03/19 08:55:53;;;;;;;100.35;9.77;;;;;;;;;;4954045;28;20034;-56
2023/03/19 08:58:18;;;;;;;91.57;9.63;;;;;;;;;;4954279;28;20572;-57
2023/03/19 09:00:46;;;;;;;84.90;9.57;;;;;;;;;;4955698;28;20031;-56
2023/03/19 09:03:12;;;;;;;87.60;9.48;;;;;;;;;;4952978;28;20034;-57
2023/03/19 09:05:37;;;;;;;113.03;10.70;;;;;;;;;;4950941;28;20031;-56
2023/03/19 09:08:02;;;;;;;92.90;9.98;;;;;;;;;;4952314;28;20039;-57
2023/03/19 09:10:28;;;;;;;83.00;9.48;;;;;;;;;;4954526;28;20118;-58
2023/03/19 09:12:53;;;;;;;114.03;10.10;;;;;;;;;;4953482;28;20021;-57
2023/03/19 09:15:18;;;;;;;93.78;9.45;;;;;;;;;;4953584;28;20507;-59
2023/03/19 09:17:43;;;;;;;105.13;10.43;;;;;;;;;;4951558;28;20031;-58
2023/03/19 09:20:09;;;;;;;118.43;10.83;;;;;;;;;;4951162;28;20031;-57
2023/03/19 09:22:34;;;;;;;97.20;10.02;;;;;;;;;;4954265;28;20345;-57
2023/03/19 09:25:00;;;;;;;74.22;9.20;;;;;;;;;;4953020;28;20105;-58
2023/03/19 09:27:26;;;;;;;105.28;10.43;;;;;;;;;;4953399;28;20142;-56
2023/03/19 09:29:51;;;;;;;94.78;9.98;;;;;;;;;;4952496;28;20023;-57
2023/03/19 09:32:16;;;;;;;123.93;11.03;;;;;;;;;;4952608;28;20034;-57
2023/03/19 09:34:41;;;;;;;87.15;10.23;;;;;;;;;;4954074;28;20255;-56
2023/03/19 09:37:07;;;;;;;100.03;10.87;;;;;;;;;;4950591;28;20032;-58
2023/03/19 09:39:32;;;;;;;97.38;10.05;;;;;;;;;;4953167;28;20289;-59
2023/03/19 09:42:16;;;;;;;90.90;10.05;;;;;;;;;;4953783;28;20065;-58
2023/03/19 09:44:44;;;;;;;122.03;11.10;;;;;;;;;;4952648;28;20063;-57
2023/03/19 09:47:09;;;;;;;75.45;10.15;;;;;;;;;;4953622;28;20038;-57
2023/03/19 09:49:41;;;;;;;82.65;10.10;;;;;;;;;;4954730;28;20027;-55
2023/03/19 09:52:25;;;;;;;94.03;10.10;;;;;;;;;;4952694;28;20031;-57
2023/03/19 09:54:51;;;;;;;140.35;11.68;;;;;;;;;;4951070;28;20118;-55
2023/03/19 09:57:17;;;;;;;101.03;11.23;;;;;;;;;;4949636;28;20654;-55
2023/03/19 09:59:42;;;;;;;99.30;10.98;;;;;;;;;;4952369;28;20086;-56
2023/03/19 10:02:16;;;;;;;111.32;12.35;;;;;;;;;;4953521;28;20054;-56
2023/03/19 10:04:47;;;;;;;112.22;11.40;;;;;;;;;;4952272;28;20023;-56
2023/03/19 10:07:22;;;;;;;113.95;10.40;;;;;;;;;;4951584;28;20035;-56
2023/03/19 10:09:56;;;;;;;103.72;9.85;;;;;;;;;;4951998;28;20019;-58
2023/03/19 10:12:32;;;;;;;137.25;10.88;;;;;;;;;;4952484;28;20125;-57
2023/03/19 10:15:19;;;;;;;98.05;9.43;;;;;;;;;;4952115;28;20035;-56
2023/03/19 10:17:44;;;;;;;87.05;9.10;;;;;;;;;;4954902;28;20046;-57
2023/03/19 10:20:21;;;;;;;82.70;8.77;;;;;;;;;;4952026;28;20422;-55
2023/03/19 10:22:48;;;;;;;99.00;8.38;;;;;;;;;;4951647;28;20849;-58
2023/03/19 10:25:19;;;;;;;126.80;10.13;;;;;;;;;;4957210;28;20038;-55
2023/03/19 10:27:45;;;;;;;159.35;10.82;;;;;;;;;;4948960;28;20126;-55
2023/03/19 10:30:14;;;;;;;77.28;8.13;;;;;;;;;;4950304;28;20429;-58
2023/03/19 10:32:44;;;;;;;90.03;8.38;;;;;;;;;;4953751;28;20042;-56
2023/03/19 10:35:16;;;;;;;69.82;5.97;;;;;;;;;;4952592;28;20501;-58
2023/03/19 10:37:42;;;;;;;84.10;8.35;;;;;;;;;;4951773;28;20494;-56
2023/03/19 10:40:16;;;;;;;95.90;8.27;;;;;;;;;;4952158;28;20054;-58
2023/03/19 10:43:20;;;;;;;89.03;8.30;;;;;;;;;;4952094;28;20051;-58
2023/03/19 10:45:46;;;;;;;76.47;7.28;;;;;;;;;;4914018;29;20548;-57
2023/03/19 10:48:14;;;;;;;96.55;7.45;;;;;;;;;;4913758;29;20039;-56
2023/03/19 10:50:51;;;;;;;100.03;8.20;;;;;;;;;;4931051;28;20457;-58
2023/03/19 10:53:16;;;;;;;102.55;8.68;;;;;;;;;;4951792;28;20023;-57
2023/03/19 10:55:46;;;;;;;67.87;6.77;;;;;;;;;;4949683;28;20111;-58
2023/03/19 10:58:16;;;;;;;81.97;6.85;;;;;;;;;;4949416;28;20022;-58
2023/03/19 11:00:44;;;;;;;86.15;7.55;;;;;;;;;;4950714;28;20117;-58
2023/03/19 11:03:30;;;;;;;83.10;7.13;;;;;;;;;;4951016;28;20300;-57
2023/03/19 11:06:14;;;;;;;95.65;8.65;;;;;;;;;;4949509;28;20050;-56
2023/03/19 11:08:40;;;;;;;106.65;7.90;;;;;;;;;;4951771;28;20027;-57
2023/03/19 11:11:05;;;;;;;95.88;7.25;;;;;;;;;;4949550;28;20154;-58
2023/03/19 11:13:33;;;;;;;82.40;7.75;;;;;;;;;;4950254;28;20019;-57
2023/03/19 11:15:59;;;;;;;129.15;9.43;;;;;;;;;;4947845;28;20031;-58
2023/03/19 11:18:29;;;;;;;73.03;6.57;;;;;;;;;;4950790;28;20242;-56
2023/03/19 11:20:55;;;;;;;95.53;7.45;;;;;;;;;;4951471;28;20035;-57
2023/03/19 11:23:21;;;;;;;87.85;7.50;;;;;;;;;;4952008;28;20078;-58
2023/03/19 11:25:50;;;;;;;88.10;6.35;;;;;;;;;;4949970;28;20043;-58
2023/03/19 11:28:21;;;;;;;97.75;7.53;;;;;;;;;;4950296;28;20063;-56
2023/03/19 11:31:06;;;;;;;88.22;6.85;;;;;;;;;;4951985;28;20058;-56
2023/03/19 11:33:36;;;;;;;74.03;7.35;;;;;;;;;;4950854;28;20038;-62
2023/03/19 11:36:12;;;;;;;67.38;6.40;;;;;;;;;;4948239;28;20035;-57
2023/03/19 11:38:48;;;;;;;68.35;6.85;;;;;;;;;;4948973;28;20031;-56
2023/03/19 11:41:17;;;;;;;76.60;6.45;;;;;;;;;;4959659;28;20038;-57
2023/03/19 11:43:48;;;;;;;93.93;6.85;;;;;;;;;;4943269;28;20015;-56
2023/03/19 11:46:19;;;;;;;79.22;5.25;;;;;;;;;;4947502;28;20685;-58
2023/03/19 11:48:53;;;;;;;96.25;7.38;;;;;;;;;;4944709;28;20035;-56
2023/03/19 11:51:26;;;;;;;124.63;6.47;;;;;;;;;;4948354;28;20031;-59
2023/03/19 11:53:56;;;;;;;154.15;9.60;;;;;;;;;;4948146;28;20191;-57
2023/03/19 11:56:26;;;;;;;121.55;8.20;;;;;;;;;;4948090;28;20061;-58
2023/03/19 11:58:58;;;;;;;160.55;10.30;;;;;;;;;;4947614;28;20305;-57
2023/03/19 12:01:24;;;;;;;140.15;9.23;;;;;;;;;;4947756;28;20657;-59
2023/03/19 12:04:01;;;;;;;113.72;7.78;;;;;;;;;;4946063;28;20221;-56
2023/03/19 12:06:30;;;;;;;100.47;7.80;;;;;;;;;;4946506;28;20039;-57
2023/03/19 12:09:05;;;;;;;164.30;9.88;;;;;;;;;;4947582;28;20030;-57
2023/03/19 12:11:43;;;;;;;120.07;7.88;;;;;;;;;;4947738;28;20391;-55
2023/03/19 12:14:34;;;;;;;139.85;8.45;;;;;;;;;;4944936;28;20015;-56
2023/03/19 12:17:03;;;;;;;135.98;8.75;;;;;;;;;;4946081;28;20065;-57
2023/03/19 12:19:47;;;;;;;126.55;8.25;;;;;;;;;;4949195;28;20035;-58
2023/03/19 12:22:21;;;;;;;108.28;7.57;;;;;;;;;;4947282;28;20031;-56
2023/03/19 12:25:08;;;;;;;86.22;6.80;;;;;;;;;;4948356;28;20027;-56
2023/03/19 12:27:44;;;;;;;126.43;8.23;;;;;;;;;;4948296;28;20074;-59
2023/03/19 12:30:28;;;;;;;128.93;8.13;;;;;;;;;;4946238;28;20030;-57
2023/03/19 12:32:54;;;;;;;98.65;7.07;;;;;;;;;;4948431;28;20035;-56
2023/03/19 12:35:24;;;;;;;79.45;6.30;;;;;;;;;;4948637;28;20034;-56
2023/03/19 12:37:55;;;;;;;103.25;6.95;;;;;;;;;;4947172;28;20046;-57
2023/03/19 12:40:31;;;;;;;85.30;6.28;;;;;;;;;;4946454;28;20030;-58
2023/03/19 12:42:57;;;;;;;124.28;7.72;;;;;;;;;;4945069;28;20247;-57
2023/03/19 12:45:26;;;;;;;90.53;6.35;;;;;;;;;;4946572;28;20248;-57
2023/03/19 12:47:56;;;;;;;78.20;5.95;;;;;;;;;;4947208;28;20034;-56
2023/03/19 12:50:24;;;;;;;86.20;5.90;;;;;;;;;;4948895;28;20061;-60
2023/03/19 12:52:50;;;;;;;122.70;7.05;;;;;;;;;;4948234;28;20019;-58
2023/03/19 12:55:18;;;;;;;149.70;8.73;;;;;;;;;;4946407;28;20023;-57
2023/03/19 12:57:56;;;;;;;142.68;8.55;;;;;;;;;;4946868;28;20380;-57
2023/03/19 13:00:24;;;;;;;133.55;7.72;;;;;;;;;;4946728;28;20494;-57
2023/03/19 13:02:52;;;;;;;150.63;8.45;;;;;;;;;;4944005;28;20570;-57
2023/03/19 13:05:36;;;;;;;146.38;7.82;;;;;;;;;;4943979;28;20057;-55
2023/03/19 13:08:04;;;;;;;80.40;5.25;;;;;;;;;;4946784;28;20035;-57
2023/03/19 13:10:31;;;;;;;113.82;6.60;;;;;;;;;;4945638;28;20031;-57
2023/03/19 13:12:57;;;;;;;103.45;6.53;;;;;;;;;;4947562;28;20266;-57
2023/03/19 13:15:22;;;;;;;117.20;7.00;;;;;;;;;;4947045;28;20023;-57
2023/03/19 13:17:53;;;;;;;157.55;8.30;;;;;;;;;;4947483;28;20069;-59
2023/03/19 13:20:37;;;;;;;140.03;7.40;;;;;;;;;;4948443;28;20027;-56
2023/03/19 13:23:05;;;;;;;92.13;5.70;;;;;;;;;;4945739;28;20532;-55
2023/03/19 13:25:33;;;;;;;112.60;6.53;;;;;;;;;;4953711;28;20411;-56
2023/03/19 13:27:59;;;;;;;202.95;10.50;;;;;;;;;;4946979;28;20030;-55
2023/03/19 13:30:25;;;;;;;137.85;7.43;;;;;;;;;;4949659;28;20023;-58
2023/03/19 13:33:01;;;;;;;140.38;7.55;;;;;;;;;;4948763;28;20090;-57
2023/03/19 13:35:26;;;;;;;122.88;6.88;;;;;;;;;;4949511;28;20037;-59
2023/03/19 13:37:57;;;;;;;123.73;6.90;;;;;;;;;;4949994;28;20023;-58
2023/03/19 13:40:36;;;;;;;133.52;7.38;;;;;;;;;;4948709;28;20408;-57
2023/03/19 13:43:02;;;;;;;120.70;6.57;;;;;;;;;;4949667;28;20035;-56
2023/03/19 13:45:27;;;;;;;154.43;7.65;;;;;;;;;;4947838;28;20422;-57
2023/03/19 13:47:53;;;;;;;122.77;6.77;;;;;;;;;;4951085;28;20102;-56
2023/03/19 13:50:18;;;;;;;87.63;5.47;;;;;;;;;;4950874;28;20019;-56
2023/03/19 13:52:43;;;;;;;68.27;4.83;;;;;;;;;;4952198;28;20026;-58
2023/03/19 13:55:35;;;;;;;80.37;5.23;;;;;;;;;;4947761;28;20366;-59
2023/03/19 13:58:11;;;;;;;136.32;7.47;;;;;;;;;;4935476;28;20070;-56
2023/03/19 14:00:45;;;;;;;134.63;7.13;;;;;;;;;;4946662;28;20027;-57
2023/03/19 14:03:18;;;;;;;129.00;6.97;;;;;;;;;;4949349;28;20378;-56
2023/03/19 14:05:45;;;;;;;96.10;5.78;;;;;;;;;;4948721;28;20226;-58
2023/03/19 14:08:32;;;;;;;130.85;6.88;;;;;;;;;;4948413;28;20027;-58
2023/03/19 14:10:58;;;;;;;127.88;6.78;;;;;;;;;;4947949;28;20027;-58
2023/03/19 14:13:23;;;;;;;78.93;4.80;;;;;;;;;;4949281;28;20027;-58
2023/03/19 14:15:50;;;;;;;95.77;5.63;;;;;;;;;;4948076;28;20054;-59
2023/03/19 14:18:20;;;;;;;113.05;6.20;;;;;;;;;;4949830;28;20023;-58